Time;durP1;ratioP1;P1;durP2;ratioP2;P2;SDS_P1;SDS_P2;PMS_P1;PMS_P2;Temp;Humidity;BMP_temperature;BMP_pressure;BME280_temperature;BME280_humidity;BME280_pressure;Samples;Min_cycle;Max_cycle;Signal;HPM_P1;HPM_P2
2023/05/31 00:01:17;;;;;;;;;;;;;;;10.96;65.08;97763.65;108998;1250;95501;-75
2023/05/31 00:03:45;;;;;;;;;;;;;;;10.91;65.08;97764.83;109089;1249;95564;-72
2023/05/31 00:06:13;;;;;;;;;;;;;;;10.83;65.15;97759.92;109015;1251;103505;-74
2023/05/31 00:08:42;;;;;;;;;;;;;;;10.79;65.23;97761.02;109052;1249;101283;-75
2023/05/31 00:11:10;;;;;;;;;;;;;;;10.76;65.36;97756.94;109009;1251;98961;-74
2023/05/31 00:13:39;;;;;;;;;;;;;;;10.72;65.32;97757.73;108991;1250;95575;-73
2023/05/31 00:16:08;;;;;;;;;;;;;;;10.67;65.34;97758.38;109004;1250;95732;-73
2023/05/31 00:18:36;;;;;;;;;;;;;;;10.62;65.51;97761.60;108763;1254;103693;-74
2023/05/31 00:21:04;;;;;;;;;;;;;;;10.54;65.52;97763.10;109035;1250;101527;-73
2023/05/31 00:23:32;;;;;;;;;;;;;;;10.41;65.30;97758.87;108969;1250;100108;-73
2023/05/31 00:26:00;;;;;;;;;;;;;;;10.29;65.42;97762.34;108997;1249;95559;-73
2023/05/31 00:28:28;;;;;;;;;;;;;;;10.26;65.54;97764.55;109064;1251;95647;-73
2023/05/31 00:30:56;;;;;;;;;;;;;;;10.23;65.65;97763.41;109042;1251;103366;-74
2023/05/31 00:33:23;;;;;;;;;;;;;;;10.22;65.63;97759.95;108979;1250;101685;-77
2023/05/31 00:35:51;;;;;;;;;;;;;;;10.19;65.58;97754.98;108986;1249;99700;-74
2023/05/31 00:38:20;;;;;;;;;;;;;;;10.15;65.80;97756.77;108726;1249;95694;-74
2023/05/31 00:40:48;;;;;;;;;;;;;;;10.12;65.84;97760.52;109023;1250;95731;-74
2023/05/31 00:43:16;;;;;;;;;;;;;;;10.10;65.83;97760.11;109068;1249;102646;-73
2023/05/31 00:45:44;;;;;;;;;;;;;;;10.07;65.82;97762.63;108880;1251;100093;-73
2023/05/31 00:48:12;;;;;;;;;;;;;;;10.05;65.92;97766.80;109045;1250;100140;-77
2023/05/31 00:50:40;;;;;;;;;;;;;;;10.02;65.90;97772.85;108807;1250;95592;-74
2023/05/31 00:53:08;;;;;;;;;;;;;;;9.96;65.77;97772.68;108662;1251;95746;-73
2023/05/31 00:55:36;;;;;;;;;;;;;;;9.89;65.80;97772.10;109030;1251;103318;-74
2023/05/31 00:58:04;;;;;;;;;;;;;;;9.73;65.79;97773.04;109095;1250;101274;-73
2023/05/31 01:00:32;;;;;;;;;;;;;;;9.62;66.03;97772.42;109060;1249;100039;-75
2023/05/31 01:03:02;;;;;;;;;;;;;;;9.56;66.24;97768.15;108934;1251;95604;-73
2023/05/31 01:05:30;;;;;;;;;;;;;;;9.53;66.26;97766.95;108998;1249;95648;-73
2023/05/31 01:07:58;;;;;;;;;;;;;;;9.47;66.32;97767.20;108985;1250;103456;-77
2023/05/31 01:10:26;;;;;;;;;;;;;;;9.42;66.43;97768.08;109036;1249;100141;-73
2023/05/31 01:12:57;;;;;;;;;;;;;;;9.36;66.43;97771.72;109013;1250;100038;-73
2023/05/31 01:15:32;;;;;;;;;;;;;;;9.33;66.53;97771.70;109020;1251;95515;-73
2023/05/31 01:18:12;;;;;;;;;;;;;;;9.30;66.56;97774.11;109042;1251;95756;-74
2023/05/31 01:20:43;;;;;;;;;;;;;;;9.25;66.62;97777.39;109025;1250;103745;-73
2023/05/31 01:23:14;;;;;;;;;;;;;;;9.24;66.56;97779.20;109020;1250;101460;-73
2023/05/31 01:25:54;;;;;;;;;;;;;;;9.22;66.59;97780.88;109038;1249;100050;-73
2023/05/31 01:28:22;;;;;;;;;;;;;;;9.19;66.58;97780.48;109030;1249;95549;-73
2023/05/31 01:30:50;;;;;;;;;;;;;;;9.16;66.57;97779.80;109023;1250;95608;-77
2023/05/31 01:33:19;;;;;;;;;;;;;;;9.15;66.59;97778.91;109045;1250;103568;-73
2023/05/31 01:35:46;;;;;;;;;;;;;;;9.14;66.67;97777.76;108994;1251;109531;-73
2023/05/31 01:38:15;;;;;;;;;;;;;;;9.11;66.71;97780.85;108691;1250;100018;-77
2023/05/31 01:40:43;;;;;;;;;;;;;;;9.02;66.79;97780.09;109011;1250;95537;-73
2023/05/31 01:43:12;;;;;;;;;;;;;;;8.98;66.88;97783.60;109060;1250;95757;-72
2023/05/31 01:45:40;;;;;;;;;;;;;;;8.94;67.04;97783.81;109041;1250;102708;-74
2023/05/31 01:48:09;;;;;;;;;;;;;;;8.91;66.98;97781.51;109057;1251;101280;-74
2023/05/31 01:50:38;;;;;;;;;;;;;;;8.87;67.05;97781.13;109046;1250;99970;-73
2023/05/31 01:53:06;;;;;;;;;;;;;;;8.82;67.05;97782.61;109033;1249;95536;-73
2023/05/31 01:55:34;;;;;;;;;;;;;;;8.78;67.05;97782.23;109065;1249;95589;-74
2023/05/31 01:58:02;;;;;;;;;;;;;;;8.76;67.18;97781.63;108738;1250;103352;-74
2023/05/31 02:00:31;;;;;;;;;;;;;;;8.73;67.08;97781.96;108766;1249;109672;-73
2023/05/31 02:02:59;;;;;;;;;;;;;;;8.71;67.03;97788.40;109007;1249;99937;-73
2023/05/31 02:05:27;;;;;;;;;;;;;;;8.67;67.08;97787.91;109025;1249;95633;-73
2023/05/31 02:07:55;;;;;;;;;;;;;;;8.66;67.12;97786.83;109059;1249;95684;-73
2023/05/31 02:10:23;;;;;;;;;;;;;;;8.61;67.10;97789.91;108982;1249;103830;-73
2023/05/31 02:12:54;;;;;;;;;;;;;;;8.57;67.39;97790.82;108802;1250;101247;-73
2023/05/31 02:15:23;;;;;;;;;;;;;;;8.56;67.31;97788.55;108980;1249;100301;-73
2023/05/31 02:17:51;;;;;;;;;;;;;;;8.54;67.24;97789.95;109014;1249;95740;-73
2023/05/31 02:20:19;;;;;;;;;;;;;;;8.52;67.27;97794.98;109025;1250;95594;-73
2023/05/31 02:22:48;;;;;;;;;;;;;;;8.51;67.21;97793.59;109083;1249;103758;-75
2023/05/31 02:25:16;;;;;;;;;;;;;;;8.47;67.18;97792.92;108740;1250;100050;-72
2023/05/31 02:27:44;;;;;;;;;;;;;;;8.41;67.24;97790.33;109033;1250;99685;-73
2023/05/31 02:30:12;;;;;;;;;;;;;;;8.36;67.31;97790.73;109022;1250;95586;-73
2023/05/31 02:32:41;;;;;;;;;;;;;;;8.32;67.36;97792.49;109086;1249;95676;-73
2023/05/31 02:35:10;;;;;;;;;;;;;;;8.27;67.42;97796.38;109088;1250;103623;-73
2023/05/31 02:37:38;;;;;;;;;;;;;;;8.24;67.44;97799.11;109076;1250;102013;-73
2023/05/31 02:40:08;;;;;;;;;;;;;;;8.21;67.46;97799.15;109033;1249;98691;-76
2023/05/31 02:42:37;;;;;;;;;;;;;;;8.18;67.58;97798.00;109022;1250;95497;-75
2023/05/31 02:45:06;;;;;;;;;;;;;;;8.14;67.56;97800.38;109058;1249;95573;-75
2023/05/31 02:47:34;;;;;;;;;;;;;;;8.10;67.74;97798.99;108887;1249;111947;-75
2023/05/31 02:50:02;;;;;;;;;;;;;;;8.09;67.79;97799.69;109065;1249;101610;-73
2023/05/31 02:52:30;;;;;;;;;;;;;;;8.08;67.76;97800.89;109039;1249;100152;-74
2023/05/31 02:54:58;;;;;;;;;;;;;;;8.05;67.70;97797.73;108986;1249;95600;-72
2023/05/31 02:57:26;;;;;;;;;;;;;;;8.02;67.68;97801.16;109082;1249;95835;-76
2023/05/31 02:59:58;;;;;;;;;;;;;;;7.99;67.90;97802.02;109061;1250;103424;-73
2023/05/31 03:02:26;;;;;;;;;;;;;;;7.98;67.85;97807.84;109075;1249;101278;-72
2023/05/31 03:04:55;;;;;;;;;;;;;;;7.96;67.91;97804.02;109013;1249;99811;-76
2023/05/31 03:07:23;;;;;;;;;;;;;;;7.94;68.00;97808.38;109028;1249;95598;-74
2023/05/31 03:09:51;;;;;;;;;;;;;;;7.94;68.10;97810.12;108988;1250;95699;-73
2023/05/31 03:12:19;;;;;;;;;;;;;;;7.95;68.07;97812.20;109002;1249;103359;-74
2023/05/31 03:14:47;;;;;;;;;;;;;;;7.94;68.14;97817.11;109068;1249;100279;-73
2023/05/31 03:17:14;;;;;;;;;;;;;;;7.94;68.30;97816.04;108971;1249;100190;-73
2023/05/31 03:19:42;;;;;;;;;;;;;;;7.95;68.34;97815.80;109031;1249;95795;-73
2023/05/31 03:22:10;;;;;;;;;;;;;;;7.95;68.34;97815.02;109005;1249;95592;-75
2023/05/31 03:24:38;;;;;;;;;;;;;;;7.96;68.40;97814.04;109069;1249;103463;-76
2023/05/31 03:27:07;;;;;;;;;;;;;;;7.96;68.37;97811.77;109092;1249;101131;-72
2023/05/31 03:29:38;;;;;;;;;;;;;;;7.95;68.42;97814.52;108657;1250;98527;-71
2023/05/31 03:32:06;;;;;;;;;;;;;;;7.93;68.38;97814.44;108716;1250;95556;-73
2023/05/31 03:34:34;;;;;;;;;;;;;;;7.91;68.52;97815.33;109054;1249;95718;-74
2023/05/31 03:37:02;;;;;;;;;;;;;;;7.91;68.66;97811.27;108455;1250;112459;-73
2023/05/31 03:39:31;;;;;;;;;;;;;;;7.92;68.68;97815.39;108618;1250;101603;-73
2023/05/31 03:42:01;;;;;;;;;;;;;;;7.94;68.74;97816.11;109000;1249;99814;-72
2023/05/31 03:44:29;;;;;;;;;;;;;;;7.94;68.80;97811.91;109003;1249;95495;-71
2023/05/31 03:46:58;;;;;;;;;;;;;;;7.94;68.88;97815.46;109097;1249;95623;-72
2023/05/31 03:49:26;;;;;;;;;;;;;;;7.96;69.03;97821.56;109019;1250;103523;-72
2023/05/31 03:51:54;;;;;;;;;;;;;;;7.98;69.11;97822.56;109054;1249;101268;-72
2023/05/31 03:54:22;;;;;;;;;;;;;;;8.00;69.01;97822.59;108996;1249;99871;-72
2023/05/31 03:56:49;;;;;;;;;;;;;;;8.01;69.07;97821.13;109046;1250;95504;-72
2023/05/31 03:59:17;;;;;;;;;;;;;;;8.03;69.11;97819.63;109073;1249;95542;-72
2023/05/31 04:01:45;;;;;;;;;;;;;;;8.05;69.20;97819.70;109047;1249;103607;-72
2023/05/31 04:04:13;;;;;;;;;;;;;;;8.08;69.21;97816.40;109062;1249;100427;-74
2023/05/31 04:06:41;;;;;;;;;;;;;;;8.10;69.30;97815.84;108983;1249;99734;-71
2023/05/31 04:09:09;;;;;;;;;;;;;;;8.14;69.42;97816.67;109014;1249;95572;-72
2023/05/31 04:11:37;;;;;;;;;;;;;;;8.17;69.46;97815.00;109097;1249;95607;-72
2023/05/31 04:14:05;;;;;;;;;;;;;;;8.21;69.61;97810.91;109083;1249;103672;-73
2023/05/31 04:16:33;;;;;;;;;;;;;;;8.25;69.68;97814.39;109047;1249;101518;-75
2023/05/31 04:19:01;;;;;;;;;;;;;;;8.29;69.72;97819.16;108748;1249;99869;-73
2023/05/31 04:21:29;;;;;;;;;;;;;;;8.31;69.75;97815.86;108994;1250;95508;-75
2023/05/31 04:23:57;;;;;;;;;;;;;;;8.34;69.91;97816.67;109068;1249;95673;-73
2023/05/31 04:26:25;;;;;;;;;;;;;;;8.36;69.82;97814.39;109051;1249;103701;-73
2023/05/31 04:28:54;;;;;;;;;;;;;;;8.41;69.90;97816.15;109070;1249;101036;-73
2023/05/31 04:31:24;;;;;;;;;;;;;;;8.45;70.03;97818.32;109026;1249;100124;-73
2023/05/31 04:33:53;;;;;;;;;;;;;;;8.50;70.23;97816.39;109090;1249;95552;-75
2023/05/31 04:36:22;;;;;;;;;;;;;;;8.56;70.25;97817.83;108744;1249;95780;-73
2023/05/31 04:38:50;;;;;;;;;;;;;;;8.62;70.26;97817.45;109014;1249;103429;-73
2023/05/31 04:41:19;;;;;;;;;;;;;;;8.66;70.35;97818.55;109088;1249;100184;-73
2023/05/31 04:43:47;;;;;;;;;;;;;;;8.70;70.41;97820.43;109041;1249;99988;-73
2023/05/31 04:46:16;;;;;;;;;;;;;;;8.74;70.53;97821.02;108896;1249;95588;-74
2023/05/31 04:48:44;;;;;;;;;;;;;;;8.80;70.54;97823.86;109068;1249;95712;-73
2023/05/31 04:51:13;;;;;;;;;;;;;;;8.86;70.56;97822.32;109081;1249;103376;-74
2023/05/31 04:53:41;;;;;;;;;;;;;;;8.93;70.57;97823.48;109071;1250;101065;-75
2023/05/31 04:56:10;;;;;;;;;;;;;;;8.99;70.63;97820.31;108766;1249;98801;-76
2023/05/31 04:58:38;;;;;;;;;;;;;;;9.06;70.69;97818.02;108735;1249;95879;-75
2023/05/31 05:01:06;;;;;;;;;;;;;;;9.12;70.68;97816.17;109040;1250;95557;-76
2023/05/31 05:03:34;;;;;;;;;;;;;;;9.19;70.47;97816.45;108756;1249;103235;-74
2023/05/31 05:06:12;;;;;;;;;;;;;;;9.25;70.31;97817.46;109014;1249;101351;-76
2023/05/31 05:08:41;;;;;;;;;;;;;;;9.32;70.32;97818.15;108998;1249;100148;-73
2023/05/31 05:11:09;;;;;;;;;;;;;;;9.40;70.32;97814.48;108920;1249;95795;-74
2023/05/31 05:13:37;;;;;;;;;;;;;;;9.49;70.14;97815.98;109065;1250;95641;-73
2023/05/31 05:16:05;;;;;;;;;;;;;;;9.58;70.09;97811.65;109087;1249;104164;-74
2023/05/31 05:18:33;;;;;;;;;;;;;;;9.66;70.17;97810.22;109077;1250;101665;-75
2023/05/31 05:21:01;;;;;;;;;;;;;;;9.74;69.96;97812.91;109060;1250;99941;-73
2023/05/31 05:23:29;;;;;;;;;;;;;;;9.84;69.89;97809.58;108752;1253;95572;-73
2023/05/31 05:25:56;;;;;;;;;;;;;;;9.93;69.96;97809.97;109065;1250;95682;-73
2023/05/31 05:28:25;;;;;;;;;;;;;;;10.02;69.95;97810.95;109125;1249;103555;-74
2023/05/31 05:30:53;;;;;;;;;;;;;;;10.11;69.95;97811.70;109061;1249;101345;-73
2023/05/31 05:33:21;;;;;;;;;;;;;;;10.22;70.18;97814.83;109087;1249;106701;-73
2023/05/31 05:35:49;;;;;;;;;;;;;;;10.31;69.92;97808.30;109030;1250;95585;-73
2023/05/31 05:38:17;;;;;;;;;;;;;;;10.40;69.78;97807.60;109052;1250;97131;-73
2023/05/31 05:40:45;;;;;;;;;;;;;;;10.49;69.52;97802.88;109082;1250;103479;-73
2023/05/31 05:43:13;;;;;;;;;;;;;;;10.58;69.50;97804.48;109082;1249;101196;-76
2023/05/31 05:45:41;;;;;;;;;;;;;;;10.68;69.25;97807.52;109024;1250;99590;-73
2023/05/31 05:48:09;;;;;;;;;;;;;;;10.77;69.17;97804.47;109089;1250;95817;-73
2023/05/31 05:50:37;;;;;;;;;;;;;;;10.86;68.97;97805.61;109099;1249;95613;-75
2023/05/31 05:53:05;;;;;;;;;;;;;;;10.96;68.82;97806.20;109054;1249;103683;-74
2023/05/31 05:55:35;;;;;;;;;;;;;;;11.06;68.24;97810.04;109107;1251;101606;-75
2023/05/31 05:58:03;;;;;;;;;;;;;;;11.15;67.72;97811.64;108990;1249;99612;-73
2023/05/31 06:00:32;;;;;;;;;;;;;;;11.25;67.51;97814.11;109113;1250;95648;-73
2023/05/31 06:02:59;;;;;;;;;;;;;;;11.36;67.60;97813.49;109119;1249;95588;-73
2023/05/31 06:05:28;;;;;;;;;;;;;;;11.48;67.75;97810.39;108863;1250;103621;-74
2023/05/31 06:07:56;;;;;;;;;;;;;;;11.60;67.58;97810.80;109016;1249;101338;-74
2023/05/31 06:10:24;;;;;;;;;;;;;;;11.72;67.29;97812.44;108713;1251;99695;-73
2023/05/31 06:12:52;;;;;;;;;;;;;;;11.83;67.10;97817.86;108607;1250;95891;-76
2023/05/31 06:15:20;;;;;;;;;;;;;;;11.96;66.89;97816.39;109042;1249;95597;-74
2023/05/31 06:17:49;;;;;;;;;;;;;;;12.08;66.67;97818.70;108976;1249;103535;-74
2023/05/31 06:20:18;;;;;;;;;;;;;;;12.18;66.15;97814.20;108936;1249;101463;-73
2023/05/31 06:22:45;;;;;;;;;;;;;;;12.30;65.90;97811.88;108987;1250;99402;-77
2023/05/31 06:25:14;;;;;;;;;;;;;;;12.42;65.60;97810.88;108986;1249;95578;-75
2023/05/31 06:27:41;;;;;;;;;;;;;;;12.53;65.32;97808.34;109063;1249;95553;-78
2023/05/31 06:30:10;;;;;;;;;;;;;;;12.65;64.93;97804.76;109091;1250;103663;-76
2023/05/31 06:32:38;;;;;;;;;;;;;;;12.77;64.89;97803.95;108691;1249;101438;-73
2023/05/31 06:35:06;;;;;;;;;;;;;;;12.90;64.77;97800.47;109079;1250;99920;-76
2023/05/31 06:37:35;;;;;;;;;;;;;;;13.05;64.86;97798.77;109028;1249;95949;-73
2023/05/31 06:40:04;;;;;;;;;;;;;;;13.20;65.03;97800.20;108865;1249;95683;-77
2023/05/31 06:42:32;;;;;;;;;;;;;;;13.34;64.89;97803.08;109129;1249;103502;-74
2023/05/31 06:45:00;;;;;;;;;;;;;;;13.47;64.22;97802.86;109150;1250;101156;-73
2023/05/31 06:47:28;;;;;;;;;;;;;;;13.58;63.73;97798.94;109130;1250;99695;-74
2023/05/31 06:49:56;;;;;;;;;;;;;;;13.69;63.35;97796.01;109145;1249;95834;-74
2023/05/31 06:52:24;;;;;;;;;;;;;;;13.82;62.92;97795.89;109161;1249;95830;-74
2023/05/31 06:54:52;;;;;;;;;;;;;;;13.95;62.63;97794.23;109162;1250;103189;-75
2023/05/31 06:57:21;;;;;;;;;;;;;;;14.08;62.21;97790.52;109170;1250;101396;-74
2023/05/31 06:59:48;;;;;;;;;;;;;;;14.21;62.08;97789.30;108939;1250;99894;-76
2023/05/31 07:02:17;;;;;;;;;;;;;;;14.35;61.80;97789.77;108710;1249;95624;-78
2023/05/31 07:04:45;;;;;;;;;;;;;;;14.48;61.56;97786.11;109054;1250;95563;-74
2023/05/31 07:07:13;;;;;;;;;;;;;;;14.62;61.06;97780.94;109047;1250;103044;-74
2023/05/31 07:09:40;;;;;;;;;;;;;;;14.75;60.61;97781.04;109057;1250;101304;-74
2023/05/31 07:12:09;;;;;;;;;;;;;;;14.93;61.11;97781.52;109000;1250;99862;-75
2023/05/31 07:14:37;;;;;;;;;;;;;;;15.14;61.01;97782.92;108991;1249;95578;-77
2023/05/31 07:17:05;;;;;;;;;;;;;;;15.32;60.00;97781.98;108688;1249;96246;-75
2023/05/31 07:19:43;;;;;;;;;;;;;;;15.48;59.40;97780.27;109046;1249;103398;-75
2023/05/31 07:22:11;;;;;;;;;;;;;;;15.63;59.49;97776.31;109043;1250;101760;-75
2023/05/31 07:24:39;;;;;;;;;;;;;;;15.78;59.28;97778.48;109035;1249;99607;-74
2023/05/31 07:27:07;;;;;;;;;;;;;;;15.95;59.25;97775.04;108820;1249;95633;-75
2023/05/31 07:29:36;;;;;;;;;;;;;;;16.14;58.56;97772.11;108999;1249;95715;-75
2023/05/31 07:32:04;;;;;;;;;;;;;;;16.33;58.07;97770.11;109047;1249;103127;-75
2023/05/31 07:34:32;;;;;;;;;;;;;;;16.47;57.71;97765.73;109006;1249;101244;-74
2023/05/31 07:37:01;;;;;;;;;;;;;;;16.63;57.59;97765.13;108793;1250;100016;-74
2023/05/31 07:39:30;;;;;;;;;;;;;;;16.80;57.07;97766.08;108956;1251;95538;-74
2023/05/31 07:41:58;;;;;;;;;;;;;;;16.94;55.16;97768.54;108982;1249;95717;-74
2023/05/31 07:44:26;;;;;;;;;;;;;;;17.08;54.96;97767.38;108832;1250;103537;-77
2023/05/31 07:46:55;;;;;;;;;;;;;;;17.28;54.48;97767.98;108893;1250;100328;-74
2023/05/31 07:49:23;;;;;;;;;;;;;;;17.56;53.88;97773.06;108998;1249;100202;-75
2023/05/31 07:51:51;;;;;;;;;;;;;;;17.93;53.61;97772.21;108944;1251;95528;-74
2023/05/31 07:54:19;;;;;;;;;;;;;;;18.40;53.23;97770.84;109040;1249;95698;-75
2023/05/31 07:56:47;;;;;;;;;;;;;;;18.94;52.17;97765.30;109008;1250;103632;-76
2023/05/31 07:59:16;;;;;;;;;;;;;;;19.50;51.16;97763.98;109018;1250;101270;-77
2023/05/31 08:01:46;;;;;;;;;;;;;;;20.04;50.22;97764.27;108958;1249;100305;-76
2023/05/31 08:04:16;;;;;;;;;;;;;;;20.59;49.26;97764.70;108977;1249;95770;-77
2023/05/31 08:06:45;;;;;;;;;;;;;;;21.13;48.97;97770.70;109012;1250;95725;-75
2023/05/31 08:09:13;;;;;;;;;;;;;;;21.57;47.78;97763.81;109009;1250;103468;-76
2023/05/31 08:11:41;;;;;;;;;;;;;;;22.01;46.87;97769.89;109039;1250;101312;-78
2023/05/31 08:14:10;;;;;;;;;;;;;;;22.43;46.58;97769.45;108952;1250;99889;-76
2023/05/31 08:16:39;;;;;;;;;;;;;;;22.79;46.13;97768.26;108979;1250;95596;-76
2023/05/31 08:19:07;;;;;;;;;;;;;;;23.09;44.86;97767.77;108881;1250;96661;-77
2023/05/31 08:21:36;;;;;;;;;;;;;;;23.41;44.04;97765.00;108998;1250;103774;-76
2023/05/31 08:24:06;;;;;;;;;;;;;;;23.72;42.99;97756.75;109019;1251;101266;-76
2023/05/31 08:26:34;;;;;;;;;;;;;;;23.99;42.35;97751.79;108841;1251;100235;-75
2023/05/31 08:29:03;;;;;;;;;;;;;;;24.17;42.29;97752.29;109014;1250;95814;-78
2023/05/31 08:31:31;;;;;;;;;;;;;;;24.40;41.55;97750.91;109025;1249;95712;-77
2023/05/31 08:34:00;;;;;;;;;;;;;;;24.63;40.96;97755.98;109046;1249;103299;-76
2023/05/31 08:36:28;;;;;;;;;;;;;;;24.93;40.95;97756.95;108995;1250;101687;-76
2023/05/31 08:38:56;;;;;;;;;;;;;;;25.32;40.35;97754.02;109000;1251;99953;-78
2023/05/31 08:41:26;;;;;;;;;;;;;;;25.68;39.58;97744.71;109002;1249;95521;-75
2023/05/31 08:43:55;;;;;;;;;;;;;;;25.88;39.28;97744.89;109003;1249;95903;-77
2023/05/31 08:46:23;;;;;;;;;;;;;;;26.08;38.72;97746.47;109041;1250;103090;-80
2023/05/31 08:48:54;;;;;;;;;;;;;;;26.32;38.49;97747.77;109032;1249;101319;-78
2023/05/31 08:51:25;;;;;;;;;;;;;;;26.68;37.89;97745.27;108744;1249;98998;-74
2023/05/31 08:53:54;;;;;;;;;;;;;;;27.06;36.84;97746.30;108838;1253;95612;-73
2023/05/31 08:56:23;;;;;;;;;;;;;;;27.37;36.57;97743.44;109004;1251;95611;-73
2023/05/31 08:58:51;;;;;;;;;;;;;;;27.65;37.16;97740.95;109013;1250;103723;-76
2023/05/31 09:01:20;;;;;;;;;;;;;;;27.72;36.32;97740.45;108835;1250;101288;-78
2023/05/31 09:03:48;;;;;;;;;;;;;;;27.91;36.00;97732.77;109019;1251;99581;-74
2023/05/31 09:06:17;;;;;;;;;;;;;;;28.17;35.58;97733.38;108882;1251;95519;-74
2023/05/31 09:08:47;;;;;;;;;;;;;;;28.39;35.55;97729.38;108947;1250;95609;-73
2023/05/31 09:11:15;;;;;;;;;;;;;;;28.46;35.09;97728.30;108874;1251;103674;-75
2023/05/31 09:13:43;;;;;;;;;;;;;;;28.38;34.69;97734.14;108913;1250;100046;-74
2023/05/31 09:16:12;;;;;;;;;;;;;;;28.53;34.50;97730.48;108863;1251;99835;-74
2023/05/31 09:18:40;;;;;;;;;;;;;;;28.73;33.76;97726.98;108869;1251;95573;-77
2023/05/31 09:21:10;;;;;;;;;;;;;;;28.81;32.66;97728.34;108915;1251;95602;-76
2023/05/31 09:23:38;;;;;;;;;;;;;;;28.69;32.60;97731.13;108911;1251;103214;-74
2023/05/31 09:26:09;;;;;;;;;;;;;;;28.66;32.73;97731.13;108884;1251;101019;-75
2023/05/31 09:28:37;;;;;;;;;;;;;;;28.86;33.17;97730.02;108776;1251;99817;-77
2023/05/31 09:31:06;;;;;;;;;;;;;;;29.08;32.64;97726.23;108737;1251;95651;-76
2023/05/31 09:33:38;;;;;;;;;;;;;;;29.02;31.49;97725.10;108688;1251;96532;-80
2023/05/31 09:36:06;;;;;;;;;;;;;;;28.95;31.72;97721.66;108863;1251;103451;-76
2023/05/31 09:38:35;;;;;;;;;;;;;;;29.08;31.93;97724.23;108997;1250;101776;-75
2023/05/31 09:41:16;;;;;;;;;;;;;;;29.03;31.24;97723.08;108914;1250;99146;-74
2023/05/31 09:43:45;;;;;;;;;;;;;;;28.97;31.29;97725.48;109024;1250;95550;-74
2023/05/31 09:46:14;;;;;;;;;;;;;;;29.07;31.53;97722.55;108985;1250;95628;-77
2023/05/31 09:48:43;;;;;;;;;;;;;;;29.22;30.95;97718.73;108780;1249;103373;-74
2023/05/31 09:51:11;;;;;;;;;;;;;;;29.31;30.94;97719.17;108963;1250;101331;-73
2023/05/31 09:53:44;;;;;;;;;;;;;;;29.33;30.80;97716.17;108790;1250;227394;-74
2023/05/31 09:56:12;;;;;;;;;;;;;;;29.33;30.70;97711.10;108523;1256;95702;-77
2023/05/31 09:58:41;;;;;;;;;;;;;;;29.33;30.95;97708.45;108994;1250;95694;-74
2023/05/31 10:01:09;;;;;;;;;;;;;;;29.26;30.98;97707.03;108743;1250;103569;-74
2023/05/31 10:03:39;;;;;;;;;;;;;;;29.13;30.91;97703.60;109040;1250;100578;-75
2023/05/31 10:06:08;;;;;;;;;;;;;;;28.94;31.09;97703.23;109021;1249;99114;-74
2023/05/31 10:08:37;;;;;;;;;;;;;;;28.93;31.06;97701.97;108778;1250;95936;-73
2023/05/31 10:11:05;;;;;;;;;;;;;;;28.94;30.34;97696.55;108986;1250;95614;-74
2023/05/31 10:13:33;;;;;;;;;;;;;;;28.75;30.10;97694.20;109034;1250;103485;-77
2023/05/31 10:16:05;;;;;;;;;;;;;;;28.68;30.54;97691.39;108991;1249;108352;-74
2023/05/31 10:18:37;;;;;;;;;;;;;;;28.76;30.96;97688.63;108849;1249;99437;-74
2023/05/31 10:21:22;;;;;;;;;;;;;;;28.85;30.43;97685.86;108654;1249;95982;-76
2023/05/31 10:23:58;;;;;;;;;;;;;;;28.85;30.47;97682.60;109035;1253;96507;-76
2023/05/31 10:26:32;;;;;;;;;;;;;;;28.74;30.49;97679.48;109019;1250;103541;-74
2023/05/31 10:29:00;;;;;;;;;;;;;;;28.51;30.42;97680.89;109043;1250;109956;-76
2023/05/31 10:31:32;;;;;;;;;;;;;;;28.63;30.66;97677.95;109033;1250;100264;-73
2023/05/31 10:34:13;;;;;;;;;;;;;;;28.88;30.65;97674.45;108978;1249;95556;-74
2023/05/31 10:36:42;;;;;;;;;;;;;;;28.97;30.14;97670.36;108986;1250;95607;-74
2023/05/31 10:39:15;;;;;;;;;;;;;;;28.98;30.34;97670.91;109045;1250;103516;-76
2023/05/31 10:41:45;;;;;;;;;;;;;;;29.10;30.12;97672.10;108851;1249;101342;-74
2023/05/31 10:44:19;;;;;;;;;;;;;;;29.08;29.64;97673.65;108764;1249;99485;-75
2023/05/31 10:46:50;;;;;;;;;;;;;;;28.90;29.57;97669.89;108984;1251;95557;-73
2023/05/31 10:49:19;;;;;;;;;;;;;;;28.93;29.82;97671.80;109028;1250;95586;-75
2023/05/31 10:51:47;;;;;;;;;;;;;;;28.98;29.99;97670.52;109019;1249;103192;-75
2023/05/31 10:54:22;;;;;;;;;;;;;;;29.01;30.08;97670.43;109044;1249;101312;-76
2023/05/31 10:56:54;;;;;;;;;;;;;;;29.10;29.13;97668.78;109012;1249;99793;-76
2023/05/31 10:59:27;;;;;;;;;;;;;;;29.07;29.24;97665.22;109002;1249;95562;-74
2023/05/31 11:01:55;;;;;;;;;;;;;;;29.06;29.28;97659.46;109016;1249;95689;-73
2023/05/31 11:04:25;;;;;;;;;;;;;;;28.98;28.24;97657.65;109048;1249;103426;-74
2023/05/31 11:06:54;;;;;;;;;;;;;;;28.81;28.60;97654.21;109045;1250;101315;-75
2023/05/31 11:09:23;;;;;;;;;;;;;;;28.89;29.69;97650.14;109018;1249;99935;-73
2023/05/31 11:11:51;;;;;;;;;;;;;;;29.02;29.39;97649.80;108999;1249;95538;-77
2023/05/31 11:14:25;;;;;;;;;;;;;;;28.98;28.10;97642.96;109068;1249;95608;-75
2023/05/31 11:16:54;;;;;;;;;;;;;;;28.78;27.47;97641.52;109055;1249;111763;-75
2023/05/31 11:19:22;;;;;;;;;;;;;;;28.68;27.84;97642.41;109038;1249;101036;-73
2023/05/31 11:21:54;;;;;;;;;;;;;;;28.66;28.05;97646.23;109019;1250;99834;-74
2023/05/31 11:24:29;;;;;;;;;;;;;;;28.65;28.11;97643.98;109021;1249;95666;-75
2023/05/31 11:26:58;;;;;;;;;;;;;;;28.73;28.31;97636.39;109023;1249;96486;-75
2023/05/31 11:29:46;;;;;;;;;;;;;;;28.65;28.65;97634.99;109015;1249;103550;-77
2023/05/31 11:32:17;;;;;;;;;;;;;;;28.76;28.95;97634.48;109039;1250;101563;-74
2023/05/31 11:34:58;;;;;;;;;;;;;;;28.93;28.92;97632.88;109008;1249;99926;-75
2023/05/31 11:37:37;;;;;;;;;;;;;;;28.83;27.82;97629.86;108985;1249;95620;-76
2023/05/31 11:40:06;;;;;;;;;;;;;;;28.66;27.46;97629.49;109060;1249;95555;-75
2023/05/31 11:42:45;;;;;;;;;;;;;;;28.66;28.26;97627.19;108826;1250;103236;-73
2023/05/31 11:45:14;;;;;;;;;;;;;;;28.78;28.26;97625.02;108804;1250;101099;-74
2023/05/31 11:47:45;;;;;;;;;;;;;;;28.91;28.42;97622.63;108979;1249;99607;-76
2023/05/31 11:50:16;;;;;;;;;;;;;;;29.07;27.88;97622.16;109037;1250;95659;-77
2023/05/31 11:52:44;;;;;;;;;;;;;;;29.11;28.01;97620.20;109023;1250;95805;-74
2023/05/31 11:55:13;;;;;;;;;;;;;;;29.11;28.40;97616.17;109042;1250;103494;-74
2023/05/31 11:57:42;;;;;;;;;;;;;;;29.22;28.18;97614.04;109044;1250;101690;-74
2023/05/31 12:00:11;;;;;;;;;;;;;;;29.33;27.88;97614.30;109004;1249;100155;-74
2023/05/31 12:02:44;;;;;;;;;;;;;;;29.29;27.86;97614.63;108839;1249;95748;-74
2023/05/31 12:05:12;;;;;;;;;;;;;;;29.25;27.77;97609.77;109031;1250;95568;-76
2023/05/31 12:07:40;;;;;;;;;;;;;;;29.19;28.12;97606.86;108696;1250;102525;-74
2023/05/31 12:10:09;;;;;;;;;;;;;;;29.22;27.79;97603.64;109028;1250;101021;-77
2023/05/31 12:12:40;;;;;;;;;;;;;;;29.28;28.21;97601.55;108783;1249;100202;-75
2023/05/31 12:15:11;;;;;;;;;;;;;;;29.41;27.98;97607.23;108791;1250;96046;-74
2023/05/31 12:17:40;;;;;;;;;;;;;;;29.42;28.08;97604.29;108863;1249;95729;-79
2023/05/31 12:20:08;;;;;;;;;;;;;;;29.44;28.01;97603.80;109016;1250;103557;-74
2023/05/31 12:22:36;;;;;;;;;;;;;;;29.43;28.02;97600.66;109046;1249;101667;-74
2023/05/31 12:25:04;;;;;;;;;;;;;;;29.48;28.12;97600.55;108915;1249;98489;-73
2023/05/31 12:27:32;;;;;;;;;;;;;;;29.49;27.91;97598.61;109002;1249;95569;-76
2023/05/31 12:30:01;;;;;;;;;;;;;;;29.37;27.55;97596.41;109065;1249;95688;-74
2023/05/31 12:32:30;;;;;;;;;;;;;;;29.36;27.33;97597.66;109042;1250;103837;-74
2023/05/31 12:35:04;;;;;;;;;;;;;;;29.38;27.16;97593.74;109018;1250;99998;-74
2023/05/31 12:37:39;;;;;;;;;;;;;;;29.35;27.32;97591.04;108987;1250;99620;-74
2023/05/31 12:40:18;;;;;;;;;;;;;;;29.32;27.46;97590.64;108995;1249;95605;-75
2023/05/31 12:42:46;;;;;;;;;;;;;;;29.38;27.53;97586.39;109029;1249;95650;-74
2023/05/31 12:45:18;;;;;;;;;;;;;;;29.39;27.70;97581.73;109036;1249;103436;-76